sensor_id;sensor_type;location;lat;lon;timestamp;temperature;humidity
40434;DHT22;26146;51.114;5.654;2023-04-07T00:00:16;10.10;99.90
40434;DHT22;26146;51.114;5.654;2023-04-07T00:04:17;10.10;99.90
40434;DHT22;26146;51.114;5.654;2023-04-07T00:08:18;10.20;99.90
40434;DHT22;26146;51.114;5.654;2023-04-07T00:12:20;10.10;99.90
40434;DHT22;26146;51.114;5.654;2023-04-07T00:16:22;10.10;99.90
40434;DHT22;26146;51.114;5.654;2023-04-07T00:20:25;10.20;99.90
40434;DHT22;26146;51.114;5.654;2023-04-07T00:24:27;10.00;99.90
40434;DHT22;26146;51.114;5.654;2023-04-07T00:28:30;9.90;99.90
40434;DHT22;26146;51.114;5.654;2023-04-07T00:32:31;9.80;99.90
40434;DHT22;26146;51.114;5.654;2023-04-07T00:36:32;9.90;99.90
40434;DHT22;26146;51.114;5.654;2023-04-07T00:40:33;9.90;99.90
40434;DHT22;26146;51.114;5.654;2023-04-07T00:44:34;9.90;99.90
40434;DHT22;26146;51.114;5.654;2023-04-07T00:48:36;9.90;99.90
40434;DHT22;26146;51.114;5.654;2023-04-07T00:52:37;9.90;99.90
40434;DHT22;26146;51.114;5.654;2023-04-07T00:56:39;9.90;99.90
40434;DHT22;26146;51.114;5.654;2023-04-07T01:01:07;9.80;99.90
40434;DHT22;26146;51.114;5.654;2023-04-07T01:05:24;9.70;99.90
40434;DHT22;26146;51.114;5.654;2023-04-07T01:09:42;9.60;99.90
40434;DHT22;26146;51.114;5.654;2023-04-07T01:13:49;9.70;99.90
40434;DHT22;26146;51.114;5.654;2023-04-07T01:17:57;9.60;99.90
40434;DHT22;26146;51.114;5.654;2023-04-07T01:21:59;9.40;99.90
40434;DHT22;26146;51.114;5.654;2023-04-07T01:30:22;9.40;99.90
40434;DHT22;26146;51.114;5.654;2023-04-07T01:34:25;9.40;99.90
40434;DHT22;26146;51.114;5.654;2023-04-07T01:38:29;9.60;99.90
40434;DHT22;26146;51.114;5.654;2023-04-07T01:42:31;9.70;99.90
40434;DHT22;26146;51.114;5.654;2023-04-07T01:46:33;9.80;99.90
40434;DHT22;26146;51.114;5.654;2023-04-07T01:50:35;9.60;99.90
40434;DHT22;26146;51.114;5.654;2023-04-07T01:54:38;9.70;99.90
40434;DHT22;26146;51.114;5.654;2023-04-07T01:58:42;9.80;99.90
40434;DHT22;26146;51.114;5.654;2023-04-07T02:02:45;9.80;99.90
40434;DHT22;26146;51.114;5.654;2023-04-07T02:06:55;9.80;99.90
40434;DHT22;26146;51.114;5.654;2023-04-07T02:11:00;9.90;99.90
40434;DHT22;26146;51.114;5.654;2023-04-07T02:15:05;9.90;99.90
40434;DHT22;26146;51.114;5.654;2023-04-07T02:19:07;9.90;99.90
40434;DHT22;26146;51.114;5.654;2023-04-07T02:23:08;10.00;99.90
40434;DHT22;26146;51.114;5.654;2023-04-07T02:27:09;10.00;99.90
40434;DHT22;26146;51.114;5.654;2023-04-07T02:31:10;9.90;99.90
40434;DHT22;26146;51.114;5.654;2023-04-07T02:35:13;9.90;99.90
40434;DHT22;26146;51.114;5.654;2023-04-07T02:39:14;9.80;99.90
40434;DHT22;26146;51.114;5.654;2023-04-07T02:43:15;9.80;99.90
40434;DHT22;26146;51.114;5.654;2023-04-07T02:47:17;9.90;99.90
40434;DHT22;26146;51.114;5.654;2023-04-07T02:51:20;9.70;99.90
40434;DHT22;26146;51.114;5.654;2023-04-07T02:55:21;9.70;99.90
40434;DHT22;26146;51.114;5.654;2023-04-07T02:59:22;9.70;99.90
40434;DHT22;26146;51.114;5.654;2023-04-07T03:03:23;9.60;99.90
40434;DHT22;26146;51.114;5.654;2023-04-07T03:07:26;9.70;99.90
40434;DHT22;26146;51.114;5.654;2023-04-07T03:11:27;9.70;99.90
40434;DHT22;26146;51.114;5.654;2023-04-07T03:15:28;9.70;99.90
40434;DHT22;26146;51.114;5.654;2023-04-07T03:19:29;9.90;99.90
40434;DHT22;26146;51.114;5.654;2023-04-07T03:23:30;9.70;99.90
40434;DHT22;26146;51.114;5.654;2023-04-07T03:27:31;9.70;99.90
40434;DHT22;26146;51.114;5.654;2023-04-07T03:31:35;9.50;99.90
40434;DHT22;26146;51.114;5.654;2023-04-07T03:35:37;9.60;99.90
40434;DHT22;26146;51.114;5.654;2023-04-07T03:39:38;9.60;99.90
40434;DHT22;26146;51.114;5.654;2023-04-07T03:43:40;9.50;99.90
40434;DHT22;26146;51.114;5.654;2023-04-07T03:47:41;9.30;99.90
40434;DHT22;26146;51.114;5.654;2023-04-07T03:51:42;9.30;99.90
40434;DHT22;26146;51.114;5.654;2023-04-07T03:55:43;9.30;99.90
40434;DHT22;26146;51.114;5.654;2023-04-07T03:59:44;9.30;99.90
40434;DHT22;26146;51.114;5.654;2023-04-07T04:03:48;9.40;99.90
40434;DHT22;26146;51.114;5.654;2023-04-07T04:07:49;9.20;99.90
40434;DHT22;26146;51.114;5.654;2023-04-07T04:11:52;9.30;99.90
40434;DHT22;26146;51.114;5.654;2023-04-07T04:15:53;9.30;99.90
40434;DHT22;26146;51.114;5.654;2023-04-07T04:19:54;9.30;99.90
40434;DHT22;26146;51.114;5.654;2023-04-07T04:23:55;9.30;99.90
40434;DHT22;26146;51.114;5.654;2023-04-07T04:27:56;9.30;99.90
40434;DHT22;26146;51.114;5.654;2023-04-07T04:31:57;9.40;99.90
40434;DHT22;26146;51.114;5.654;2023-04-07T04:35:58;9.40;99.90
40434;DHT22;26146;51.114;5.654;2023-04-07T04:39:58;9.30;99.90
40434;DHT22;26146;51.114;5.654;2023-04-07T04:44:00;9.20;99.90
40434;DHT22;26146;51.114;5.654;2023-04-07T04:48:01;9.20;99.90
40434;DHT22;26146;51.114;5.654;2023-04-07T04:52:02;9.20;99.90
40434;DHT22;26146;51.114;5.654;2023-04-07T04:56:03;9.20;99.90
40434;DHT22;26146;51.114;5.654;2023-04-07T05:00:05;9.30;99.90
40434;DHT22;26146;51.114;5.654;2023-04-07T05:04:07;9.20;99.90
40434;DHT22;26146;51.114;5.654;2023-04-07T05:08:10;9.20;99.90
40434;DHT22;26146;51.114;5.654;2023-04-07T05:12:11;9.10;99.90
40434;DHT22;26146;51.114;5.654;2023-04-07T05:16:12;9.10;99.90
40434;DHT22;26146;51.114;5.654;2023-04-07T05:20:13;9.00;99.90
40434;DHT22;26146;51.114;5.654;2023-04-07T05:24:14;8.90;99.90
40434;DHT22;26146;51.114;5.654;2023-04-07T05:28:15;8.90;99.90
40434;DHT22;26146;51.114;5.654;2023-04-07T05:32:17;9.10;99.90
40434;DHT22;26146;51.114;5.654;2023-04-07T05:36:18;9.10;99.90
40434;DHT22;26146;51.114;5.654;2023-04-07T05:40:19;9.20;99.90
40434;DHT22;26146;51.114;5.654;2023-04-07T05:44:20;9.20;99.90
40434;DHT22;26146;51.114;5.654;2023-04-07T05:48:21;9.30;99.90
40434;DHT22;26146;51.114;5.654;2023-04-07T05:52:22;9.20;99.90
40434;DHT22;26146;51.114;5.654;2023-04-07T05:56:25;9.30;99.90
40434;DHT22;26146;51.114;5.654;2023-04-07T06:00:26;9.10;99.90
40434;DHT22;26146;51.114;5.654;2023-04-07T06:04:27;9.10;99.90
40434;DHT22;26146;51.114;5.654;2023-04-07T06:08:28;9.20;99.90
40434;DHT22;26146;51.114;5.654;2023-04-07T06:12:29;9.30;99.90
40434;DHT22;26146;51.114;5.654;2023-04-07T06:16:30;9.40;99.90
40434;DHT22;26146;51.114;5.654;2023-04-07T06:20:33;9.40;99.90
40434;DHT22;26146;51.114;5.654;2023-04-07T06:24:35;9.40;99.90
40434;DHT22;26146;51.114;5.654;2023-04-07T06:28:36;9.40;99.90
40434;DHT22;26146;51.114;5.654;2023-04-07T06:32:37;9.30;99.90
40434;DHT22;26146;51.114;5.654;2023-04-07T06:36:38;9.20;99.90
40434;DHT22;26146;51.114;5.654;2023-04-07T06:40:39;9.30;99.90
40434;DHT22;26146;51.114;5.654;2023-04-07T06:44:40;9.40;99.90
40434;DHT22;26146;51.114;5.654;2023-04-07T06:48:41;9.40;99.90
40434;DHT22;26146;51.114;5.654;2023-04-07T06:52:42;9.50;99.90
40434;DHT22;26146;51.114;5.654;2023-04-07T06:56:43;9.60;99.90
40434;DHT22;26146;51.114;5.654;2023-04-07T07:00:44;9.50;99.90
40434;DHT22;26146;51.114;5.654;2023-04-07T07:04:45;9.60;99.90
40434;DHT22;26146;51.114;5.654;2023-04-07T07:08:46;9.70;99.90
40434;DHT22;26146;51.114;5.654;2023-04-07T07:12:48;9.80;99.90
40434;DHT22;26146;51.114;5.654;2023-04-07T07:16:49;9.90;99.90
40434;DHT22;26146;51.114;5.654;2023-04-07T07:20:52;9.90;99.90
40434;DHT22;26146;51.114;5.654;2023-04-07T07:24:53;9.90;99.90
40434;DHT22;26146;51.114;5.654;2023-04-07T07:28:54;9.90;99.90
40434;DHT22;26146;51.114;5.654;2023-04-07T07:32:55;10.00;99.90
40434;DHT22;26146;51.114;5.654;2023-04-07T07:36:56;10.00;99.90
40434;DHT22;26146;51.114;5.654;2023-04-07T07:40:58;10.20;99.90
40434;DHT22;26146;51.114;5.654;2023-04-07T07:44:59;10.60;99.90
40434;DHT22;26146;51.114;5.654;2023-04-07T07:49:00;10.90;99.90
40434;DHT22;26146;51.114;5.654;2023-04-07T07:53:01;11.20;99.90
40434;DHT22;26146;51.114;5.654;2023-04-07T07:57:02;11.50;99.90
40434;DHT22;26146;51.114;5.654;2023-04-07T08:01:04;11.60;99.90
40434;DHT22;26146;51.114;5.654;2023-04-07T08:05:05;11.20;99.90
40434;DHT22;26146;51.114;5.654;2023-04-07T08:09:06;11.30;99.90
40434;DHT22;26146;51.114;5.654;2023-04-07T08:13:07;11.40;99.90
40434;DHT22;26146;51.114;5.654;2023-04-07T08:17:08;11.60;99.90
40434;DHT22;26146;51.114;5.654;2023-04-07T08:21:09;11.90;99.90
40434;DHT22;26146;51.114;5.654;2023-04-07T08:25:10;12.10;99.90
40434;DHT22;26146;51.114;5.654;2023-04-07T08:29:11;11.90;99.90
40434;DHT22;26146;51.114;5.654;2023-04-07T08:33:12;11.80;99.90
40434;DHT22;26146;51.114;5.654;2023-04-07T08:37:13;11.50;99.90
40434;DHT22;26146;51.114;5.654;2023-04-07T08:41:26;11.70;99.90
40434;DHT22;26146;51.114;5.654;2023-04-07T08:45:29;11.70;99.90
40434;DHT22;26146;51.114;5.654;2023-04-07T08:49:32;11.60;99.90
40434;DHT22;26146;51.114;5.654;2023-04-07T08:53:42;11.70;99.90
40434;DHT22;26146;51.114;5.654;2023-04-07T08:57:43;11.70;99.90
40434;DHT22;26146;51.114;5.654;2023-04-07T09:01:46;11.80;99.90
40434;DHT22;26146;51.114;5.654;2023-04-07T09:05:48;11.80;99.90
40434;DHT22;26146;51.114;5.654;2023-04-07T09:09:50;12.00;99.90
40434;DHT22;26146;51.114;5.654;2023-04-07T09:13:52;12.10;99.90
40434;DHT22;26146;51.114;5.654;2023-04-07T09:17:55;12.30;99.90
40434;DHT22;26146;51.114;5.654;2023-04-07T09:21:56;12.40;99.90
40434;DHT22;26146;51.114;5.654;2023-04-07T09:25:59;12.10;99.90
40434;DHT22;26146;51.114;5.654;2023-04-07T09:30:11;12.00;99.90
40434;DHT22;26146;51.114;5.654;2023-04-07T09:34:26;12.20;99.90
40434;DHT22;26146;51.114;5.654;2023-04-07T09:38:40;12.30;99.90
40434;DHT22;26146;51.114;5.654;2023-04-07T09:42:45;12.30;99.90
40434;DHT22;26146;51.114;5.654;2023-04-07T09:46:55;12.10;99.90
40434;DHT22;26146;51.114;5.654;2023-04-07T09:51:07;11.90;99.90
40434;DHT22;26146;51.114;5.654;2023-04-07T09:55:09;11.90;99.90
40434;DHT22;26146;51.114;5.654;2023-04-07T09:59:10;11.70;99.90
40434;DHT22;26146;51.114;5.654;2023-04-07T10:03:11;11.60;99.90
40434;DHT22;26146;51.114;5.654;2023-04-07T10:07:14;11.70;99.90
40434;DHT22;26146;51.114;5.654;2023-04-07T10:11:15;11.70;99.90
40434;DHT22;26146;51.114;5.654;2023-04-07T10:15:17;11.90;99.90
40434;DHT22;26146;51.114;5.654;2023-04-07T10:19:19;12.10;99.90
40434;DHT22;26146;51.114;5.654;2023-04-07T10:23:25;12.30;99.90
40434;DHT22;26146;51.114;5.654;2023-04-07T10:27:42;12.30;99.90
40434;DHT22;26146;51.114;5.654;2023-04-07T10:31:50;12.80;99.90
40434;DHT22;26146;51.114;5.654;2023-04-07T10:36:05;13.30;99.90
40434;DHT22;26146;51.114;5.654;2023-04-07T10:48:40;12.60;99.90
40434;DHT22;26146;51.114;5.654;2023-04-07T10:52:41;12.40;99.90
40434;DHT22;26146;51.114;5.654;2023-04-07T10:57:09;12.20;99.90
40434;DHT22;26146;51.114;5.654;2023-04-07T11:05:20;11.60;99.90
40434;DHT22;26146;51.114;5.654;2023-04-07T11:09:24;11.50;99.90
40434;DHT22;26146;51.114;5.654;2023-04-07T11:13:26;11.50;99.90
40434;DHT22;26146;51.114;5.654;2023-04-07T11:17:27;11.70;99.90
40434;DHT22;26146;51.114;5.654;2023-04-07T11:21:28;11.80;99.90
40434;DHT22;26146;51.114;5.654;2023-04-07T11:25:32;11.90;99.90
40434;DHT22;26146;51.114;5.654;2023-04-07T11:29:34;12.40;99.90
40434;DHT22;26146;51.114;5.654;2023-04-07T11:33:35;13.20;99.90
40434;DHT22;26146;51.114;5.654;2023-04-07T11:37:38;13.40;99.90
40434;DHT22;26146;51.114;5.654;2023-04-07T11:41:45;13.70;99.90
40434;DHT22;26146;51.114;5.654;2023-04-07T11:46:07;13.60;99.90
40434;DHT22;26146;51.114;5.654;2023-04-07T11:50:08;13.40;99.90
40434;DHT22;26146;51.114;5.654;2023-04-07T11:54:10;13.60;99.90
40434;DHT22;26146;51.114;5.654;2023-04-07T11:58:11;14.40;99.90
40434;DHT22;26146;51.114;5.654;2023-04-07T12:02:30;14.20;99.90
40434;DHT22;26146;51.114;5.654;2023-04-07T12:06:33;14.60;99.90
40434;DHT22;26146;51.114;5.654;2023-04-07T12:10:35;14.60;99.90
40434;DHT22;26146;51.114;5.654;2023-04-07T12:14:36;14.50;99.90
40434;DHT22;26146;51.114;5.654;2023-04-07T12:18:37;14.70;99.90
40434;DHT22;26146;51.114;5.654;2023-04-07T12:22:38;14.80;99.90
40434;DHT22;26146;51.114;5.654;2023-04-07T12:26:39;14.10;99.90
40434;DHT22;26146;51.114;5.654;2023-04-07T12:30:40;13.30;99.90
40434;DHT22;26146;51.114;5.654;2023-04-07T12:34:41;12.70;99.90
40434;DHT22;26146;51.114;5.654;2023-04-07T12:38:43;12.40;99.90
40434;DHT22;26146;51.114;5.654;2023-04-07T12:42:45;12.40;99.90
40434;DHT22;26146;51.114;5.654;2023-04-07T12:46:46;12.90;99.90
40434;DHT22;26146;51.114;5.654;2023-04-07T12:50:47;13.20;99.90
40434;DHT22;26146;51.114;5.654;2023-04-07T12:54:48;12.60;99.90
40434;DHT22;26146;51.114;5.654;2023-04-07T12:58:49;12.40;99.90
40434;DHT22;26146;51.114;5.654;2023-04-07T13:02:50;12.00;99.90
40434;DHT22;26146;51.114;5.654;2023-04-07T13:06:53;11.70;99.90
40434;DHT22;26146;51.114;5.654;2023-04-07T13:10:55;11.40;99.90
40434;DHT22;26146;51.114;5.654;2023-04-07T13:14:56;11.60;99.90
40434;DHT22;26146;51.114;5.654;2023-04-07T13:18:57;11.70;99.90
40434;DHT22;26146;51.114;5.654;2023-04-07T13:22:58;11.70;99.90
40434;DHT22;26146;51.114;5.654;2023-04-07T13:26:59;11.70;99.90
40434;DHT22;26146;51.114;5.654;2023-04-07T13:31:00;11.70;99.90
40434;DHT22;26146;51.114;5.654;2023-04-07T13:35:00;12.00;99.90
40434;DHT22;26146;51.114;5.654;2023-04-07T13:39:01;12.00;99.90
40434;DHT22;26146;51.114;5.654;2023-04-07T13:43:03;12.50;99.90
40434;DHT22;26146;51.114;5.654;2023-04-07T13:47:04;12.90;99.90
40434;DHT22;26146;51.114;5.654;2023-04-07T13:51:05;13.30;99.90
40434;DHT22;26146;51.114;5.654;2023-04-07T13:55:06;13.40;99.90
40434;DHT22;26146;51.114;5.654;2023-04-07T13:59:07;13.40;99.90
40434;DHT22;26146;51.114;5.654;2023-04-07T14:03:08;13.60;99.90
40434;DHT22;26146;51.114;5.654;2023-04-07T14:07:09;13.60;99.90
40434;DHT22;26146;51.114;5.654;2023-04-07T14:11:10;13.20;99.90
40434;DHT22;26146;51.114;5.654;2023-04-07T14:15:11;13.10;99.90
40434;DHT22;26146;51.114;5.654;2023-04-07T14:19:15;13.00;99.90
40434;DHT22;26146;51.114;5.654;2023-04-07T14:23:18;13.00;99.90
40434;DHT22;26146;51.114;5.654;2023-04-07T14:27:19;12.80;99.90
40434;DHT22;26146;51.114;5.654;2023-04-07T14:31:21;12.70;99.90
40434;DHT22;26146;51.114;5.654;2023-04-07T14:35:23;12.70;99.90
40434;DHT22;26146;51.114;5.654;2023-04-07T14:39:23;12.70;99.90
40434;DHT22;26146;51.114;5.654;2023-04-07T14:43:27;13.10;99.90
40434;DHT22;26146;51.114;5.654;2023-04-07T14:47:28;13.00;99.90
40434;DHT22;26146;51.114;5.654;2023-04-07T14:51:31;13.00;99.90
40434;DHT22;26146;51.114;5.654;2023-04-07T14:55:32;12.90;99.90
40434;DHT22;26146;51.114;5.654;2023-04-07T14:59:34;12.70;99.90
40434;DHT22;26146;51.114;5.654;2023-04-07T15:03:37;12.90;99.90
40434;DHT22;26146;51.114;5.654;2023-04-07T15:07:38;13.10;99.90
40434;DHT22;26146;51.114;5.654;2023-04-07T15:11:39;12.80;99.90
40434;DHT22;26146;51.114;5.654;2023-04-07T15:15:40;12.80;99.90
40434;DHT22;26146;51.114;5.654;2023-04-07T15:19:41;12.80;99.90
40434;DHT22;26146;51.114;5.654;2023-04-07T15:23:44;12.90;99.90
40434;DHT22;26146;51.114;5.654;2023-04-07T15:27:46;13.10;99.90
40434;DHT22;26146;51.114;5.654;2023-04-07T15:31:49;13.10;99.90
40434;DHT22;26146;51.114;5.654;2023-04-07T15:35:50;13.00;99.90
40434;DHT22;26146;51.114;5.654;2023-04-07T15:39:51;12.80;99.90
40434;DHT22;26146;51.114;5.654;2023-04-07T15:43:53;12.60;99.90
40434;DHT22;26146;51.114;5.654;2023-04-07T15:47:56;12.40;99.90
40434;DHT22;26146;51.114;5.654;2023-04-07T15:51:58;12.30;99.90
40434;DHT22;26146;51.114;5.654;2023-04-07T15:55:59;12.20;99.90
40434;DHT22;26146;51.114;5.654;2023-04-07T16:00:00;12.30;99.90
40434;DHT22;26146;51.114;5.654;2023-04-07T16:04:01;12.40;99.90
40434;DHT22;26146;51.114;5.654;2023-04-07T16:08:04;12.40;99.90
40434;DHT22;26146;51.114;5.654;2023-04-07T16:12:05;12.20;99.90
40434;DHT22;26146;51.114;5.654;2023-04-07T16:16:09;12.30;99.90
40434;DHT22;26146;51.114;5.654;2023-04-07T16:20:10;12.00;99.90
40434;DHT22;26146;51.114;5.654;2023-04-07T16:24:14;11.80;99.90
40434;DHT22;26146;51.114;5.654;2023-04-07T16:28:15;11.80;99.90
40434;DHT22;26146;51.114;5.654;2023-04-07T16:32:16;11.80;99.90
40434;DHT22;26146;51.114;5.654;2023-04-07T16:36:19;11.70;99.90
40434;DHT22;26146;51.114;5.654;2023-04-07T16:40:20;11.70;99.90
40434;DHT22;26146;51.114;5.654;2023-04-07T16:44:21;11.80;99.90
40434;DHT22;26146;51.114;5.654;2023-04-07T16:48:22;11.80;99.90
40434;DHT22;26146;51.114;5.654;2023-04-07T16:52:24;11.90;99.90
40434;DHT22;26146;51.114;5.654;2023-04-07T16:56:25;11.80;99.90
40434;DHT22;26146;51.114;5.654;2023-04-07T17:00:26;11.80;99.90
40434;DHT22;26146;51.114;5.654;2023-04-07T17:04:27;11.70;99.90
40434;DHT22;26146;51.114;5.654;2023-04-07T17:08:31;11.70;99.90
40434;DHT22;26146;51.114;5.654;2023-04-07T17:12:32;11.80;99.90
40434;DHT22;26146;51.114;5.654;2023-04-07T17:16:33;11.80;99.90
40434;DHT22;26146;51.114;5.654;2023-04-07T17:20:34;11.70;99.90
40434;DHT22;26146;51.114;5.654;2023-04-07T17:24:35;11.50;99.90
40434;DHT22;26146;51.114;5.654;2023-04-07T17:28:36;11.40;99.90
40434;DHT22;26146;51.114;5.654;2023-04-07T17:32:37;11.30;99.90
40434;DHT22;26146;51.114;5.654;2023-04-07T17:36:37;11.30;99.90
40434;DHT22;26146;51.114;5.654;2023-04-07T17:40:38;11.10;99.90
40434;DHT22;26146;51.114;5.654;2023-04-07T17:44:39;11.10;99.90
40434;DHT22;26146;51.114;5.654;2023-04-07T17:48:42;11.20;99.90
40434;DHT22;26146;51.114;5.654;2023-04-07T17:52:44;11.20;99.90
40434;DHT22;26146;51.114;5.654;2023-04-07T17:56:45;11.20;99.90
40434;DHT22;26146;51.114;5.654;2023-04-07T18:00:46;11.20;99.90
40434;DHT22;26146;51.114;5.654;2023-04-07T18:04:49;11.00;99.90
40434;DHT22;26146;51.114;5.654;2023-04-07T18:08:50;11.10;99.90
40434;DHT22;26146;51.114;5.654;2023-04-07T18:12:51;11.00;99.90
40434;DHT22;26146;51.114;5.654;2023-04-07T18:16:53;11.00;99.90
40434;DHT22;26146;51.114;5.654;2023-04-07T18:20:54;10.90;99.90
40434;DHT22;26146;51.114;5.654;2023-04-07T18:24:55;11.00;99.90
40434;DHT22;26146;51.114;5.654;2023-04-07T18:28:56;11.10;99.90
40434;DHT22;26146;51.114;5.654;2023-04-07T18:32:57;11.20;99.90
40434;DHT22;26146;51.114;5.654;2023-04-07T18:36:58;11.10;99.90
40434;DHT22;26146;51.114;5.654;2023-04-07T18:40:59;11.10;99.90
40434;DHT22;26146;51.114;5.654;2023-04-07T18:45:00;11.10;99.90
40434;DHT22;26146;51.114;5.654;2023-04-07T18:49:02;11.10;99.90
40434;DHT22;26146;51.114;5.654;2023-04-07T18:53:03;11.10;99.90
40434;DHT22;26146;51.114;5.654;2023-04-07T18:57:06;11.00;99.90
40434;DHT22;26146;51.114;5.654;2023-04-07T19:01:07;11.00;99.90
40434;DHT22;26146;51.114;5.654;2023-04-07T19:05:10;10.80;99.90
40434;DHT22;26146;51.114;5.654;2023-04-07T19:09:11;10.70;99.90
40434;DHT22;26146;51.114;5.654;2023-04-07T19:13:12;10.80;99.90
40434;DHT22;26146;51.114;5.654;2023-04-07T19:17:15;10.80;99.90
40434;DHT22;26146;51.114;5.654;2023-04-07T19:21:16;10.80;99.90
40434;DHT22;26146;51.114;5.654;2023-04-07T19:25:17;11.00;99.90
40434;DHT22;26146;51.114;5.654;2023-04-07T19:29:18;10.90;99.90
40434;DHT22;26146;51.114;5.654;2023-04-07T19:33:19;10.90;99.90
40434;DHT22;26146;51.114;5.654;2023-04-07T19:37:20;10.80;99.90
40434;DHT22;26146;51.114;5.654;2023-04-07T19:41:21;10.80;99.90
40434;DHT22;26146;51.114;5.654;2023-04-07T19:45:22;10.90;99.90
40434;DHT22;26146;51.114;5.654;2023-04-07T19:49:23;10.80;99.90
40434;DHT22;26146;51.114;5.654;2023-04-07T19:53:24;10.70;99.90
40434;DHT22;26146;51.114;5.654;2023-04-07T19:57:26;10.60;99.90
40434;DHT22;26146;51.114;5.654;2023-04-07T20:01:28;10.60;99.90
40434;DHT22;26146;51.114;5.654;2023-04-07T20:05:31;10.70;99.90
40434;DHT22;26146;51.114;5.654;2023-04-07T20:09:32;10.80;99.90
40434;DHT22;26146;51.114;5.654;2023-04-07T20:13:33;10.70;99.90
40434;DHT22;26146;51.114;5.654;2023-04-07T20:17:34;10.80;99.90
40434;DHT22;26146;51.114;5.654;2023-04-07T20:21:36;10.60;99.90
40434;DHT22;26146;51.114;5.654;2023-04-07T20:25:37;10.50;99.90
40434;DHT22;26146;51.114;5.654;2023-04-07T20:29:38;10.60;99.90
40434;DHT22;26146;51.114;5.654;2023-04-07T20:33:39;10.60;99.90
40434;DHT22;26146;51.114;5.654;2023-04-07T20:37:40;10.70;99.90
40434;DHT22;26146;51.114;5.654;2023-04-07T20:41:42;10.60;99.90
40434;DHT22;26146;51.114;5.654;2023-04-07T20:45:44;10.60;99.90
40434;DHT22;26146;51.114;5.654;2023-04-07T20:49:46;10.70;99.90
40434;DHT22;26146;51.114;5.654;2023-04-07T20:53:50;10.80;99.90
40434;DHT22;26146;51.114;5.654;2023-04-07T20:57:54;10.60;99.90
40434;DHT22;26146;51.114;5.654;2023-04-07T21:01:55;10.60;99.90
40434;DHT22;26146;51.114;5.654;2023-04-07T21:05:56;10.60;99.90
40434;DHT22;26146;51.114;5.654;2023-04-07T21:09:57;10.60;99.90
40434;DHT22;26146;51.114;5.654;2023-04-07T21:13:58;10.60;99.90
40434;DHT22;26146;51.114;5.654;2023-04-07T21:17:59;10.60;99.90
40434;DHT22;26146;51.114;5.654;2023-04-07T21:22:03;10.70;99.90
40434;DHT22;26146;51.114;5.654;2023-04-07T21:26:04;10.80;99.90
40434;DHT22;26146;51.114;5.654;2023-04-07T21:30:06;10.70;99.90
40434;DHT22;26146;51.114;5.654;2023-04-07T21:34:07;10.60;99.90
40434;DHT22;26146;51.114;5.654;2023-04-07T21:38:10;10.50;99.90
40434;DHT22;26146;51.114;5.654;2023-04-07T21:42:11;10.50;99.90
40434;DHT22;26146;51.114;5.654;2023-04-07T21:46:12;10.60;99.90
40434;DHT22;26146;51.114;5.654;2023-04-07T21:50:13;10.50;99.90
40434;DHT22;26146;51.114;5.654;2023-04-07T21:54:17;10.60;99.90
40434;DHT22;26146;51.114;5.654;2023-04-07T21:58:18;10.60;99.90
40434;DHT22;26146;51.114;5.654;2023-04-07T22:02:19;10.60;99.90
40434;DHT22;26146;51.114;5.654;2023-04-07T22:06:20;10.50;99.90
40434;DHT22;26146;51.114;5.654;2023-04-07T22:10:21;10.50;99.90
40434;DHT22;26146;51.114;5.654;2023-04-07T22:14:22;10.60;99.90
40434;DHT22;26146;51.114;5.654;2023-04-07T22:18:24;10.50;99.90
40434;DHT22;26146;51.114;5.654;2023-04-07T22:22:25;10.50;99.90
40434;DHT22;26146;51.114;5.654;2023-04-07T22:26:26;10.50;99.90
40434;DHT22;26146;51.114;5.654;2023-04-07T22:30:27;10.50;99.90
40434;DHT22;26146;51.114;5.654;2023-04-07T22:34:28;10.50;99.90
40434;DHT22;26146;51.114;5.654;2023-04-07T22:38:29;10.60;99.90
40434;DHT22;26146;51.114;5.654;2023-04-07T22:42:30;10.60;99.90
40434;DHT22;26146;51.114;5.654;2023-04-07T22:46:31;10.60;99.90
40434;DHT22;26146;51.114;5.654;2023-04-07T22:50:32;10.50;99.90
40434;DHT22;26146;51.114;5.654;2023-04-07T22:54:33;10.50;99.90
40434;DHT22;26146;51.114;5.654;2023-04-07T22:58:35;10.40;99.90
40434;DHT22;26146;51.114;5.654;2023-04-07T23:02:36;10.20;99.90
40434;DHT22;26146;51.114;5.654;2023-04-07T23:06:37;10.10;99.90
40434;DHT22;26146;51.114;5.654;2023-04-07T23:10:40;10.10;99.90
40434;DHT22;26146;51.114;5.654;2023-04-07T23:14:41;10.20;99.90
40434;DHT22;26146;51.114;5.654;2023-04-07T23:18:42;10.10;99.90
40434;DHT22;26146;51.114;5.654;2023-04-07T23:22:47;10.10;99.90
40434;DHT22;26146;51.114;5.654;2023-04-07T23:26:48;10.30;99.90
40434;DHT22;26146;51.114;5.654;2023-04-07T23:30:49;10.30;99.90
40434;DHT22;26146;51.114;5.654;2023-04-07T23:34:50;10.20;99.90
40434;DHT22;26146;51.114;5.654;2023-04-07T23:38:52;10.10;99.90
40434;DHT22;26146;51.114;5.654;2023-04-07T23:42:53;10.10;99.90
40434;DHT22;26146;51.114;5.654;2023-04-07T23:46:54;10.10;99.90
40434;DHT22;26146;51.114;5.654;2023-04-07T23:50:55;10.00;99.90
40434;DHT22;26146;51.114;5.654;2023-04-07T23:54:57;10.10;99.90
40434;DHT22;26146;51.114;5.654;2023-04-07T23:58:57;10.30;99.90
